sensor_id;sensor_type;location;lat;lon;timestamp;temperature;humidity
4840;DHT22;2434;48.486;7.964;2023-07-16T00:00:34;22.00;64.30
4840;DHT22;2434;48.486;7.964;2023-07-16T00:03:02;22.00;64.80
4840;DHT22;2434;48.486;7.964;2023-07-16T00:05:32;22.10;64.30
4840;DHT22;2434;48.486;7.964;2023-07-16T00:08:00;22.00;64.50
4840;DHT22;2434;48.486;7.964;2023-07-16T00:10:29;22.10;65.30
4840;DHT22;2434;48.486;7.964;2023-07-16T00:12:57;22.10;63.70
4840;DHT22;2434;48.486;7.964;2023-07-16T00:15:26;22.00;63.80
4840;DHT22;2434;48.486;7.964;2023-07-16T00:17:55;21.90;64.20
4840;DHT22;2434;48.486;7.964;2023-07-16T00:20:23;21.90;63.30
4840;DHT22;2434;48.486;7.964;2023-07-16T00:22:54;21.80;64.10
4840;DHT22;2434;48.486;7.964;2023-07-16T00:25:24;21.70;64.80
4840;DHT22;2434;48.486;7.964;2023-07-16T00:27:52;21.70;64.80
4840;DHT22;2434;48.486;7.964;2023-07-16T00:30:20;21.70;65.30
4840;DHT22;2434;48.486;7.964;2023-07-16T00:32:49;21.70;65.20
4840;DHT22;2434;48.486;7.964;2023-07-16T00:35:18;21.70;65.30
4840;DHT22;2434;48.486;7.964;2023-07-16T00:37:46;21.60;65.60
4840;DHT22;2434;48.486;7.964;2023-07-16T00:40:16;21.60;65.60
4840;DHT22;2434;48.486;7.964;2023-07-16T00:42:44;21.50;66.60
4840;DHT22;2434;48.486;7.964;2023-07-16T00:45:13;21.60;67.10
4840;DHT22;2434;48.486;7.964;2023-07-16T00:47:43;21.50;66.30
4840;DHT22;2434;48.486;7.964;2023-07-16T00:50:12;21.50;65.00
4840;DHT22;2434;48.486;7.964;2023-07-16T00:52:41;21.50;60.60
4840;DHT22;2434;48.486;7.964;2023-07-16T00:55:11;21.40;57.20
4840;DHT22;2434;48.486;7.964;2023-07-16T00:57:41;21.40;57.40
4840;DHT22;2434;48.486;7.964;2023-07-16T01:00:11;21.40;58.10
4840;DHT22;2434;48.486;7.964;2023-07-16T01:02:40;21.30;58.30
4840;DHT22;2434;48.486;7.964;2023-07-16T01:05:08;21.20;60.00
4840;DHT22;2434;48.486;7.964;2023-07-16T01:07:37;21.30;62.40
4840;DHT22;2434;48.486;7.964;2023-07-16T01:10:08;21.20;61.30
4840;DHT22;2434;48.486;7.964;2023-07-16T01:12:38;21.20;61.10
4840;DHT22;2434;48.486;7.964;2023-07-16T01:15:09;21.20;59.20
4840;DHT22;2434;48.486;7.964;2023-07-16T01:17:38;21.20;59.10
4840;DHT22;2434;48.486;7.964;2023-07-16T01:20:08;21.10;59.00
4840;DHT22;2434;48.486;7.964;2023-07-16T01:23:03;21.00;59.10
4840;DHT22;2434;48.486;7.964;2023-07-16T01:29:16;21.00;61.70
4840;DHT22;2434;48.486;7.964;2023-07-16T01:31:49;21.00;60.40
4840;DHT22;2434;48.486;7.964;2023-07-16T01:34:18;20.90;59.50
4840;DHT22;2434;48.486;7.964;2023-07-16T01:36:48;20.80;60.90
4840;DHT22;2434;48.486;7.964;2023-07-16T01:39:17;20.60;60.60
4840;DHT22;2434;48.486;7.964;2023-07-16T01:41:46;20.60;61.20
4840;DHT22;2434;48.486;7.964;2023-07-16T01:44:16;20.50;61.90
4840;DHT22;2434;48.486;7.964;2023-07-16T01:46:59;20.50;62.70
4840;DHT22;2434;48.486;7.964;2023-07-16T01:49:30;20.40;63.40
4840;DHT22;2434;48.486;7.964;2023-07-16T01:52:00;20.40;64.50
4840;DHT22;2434;48.486;7.964;2023-07-16T01:54:28;20.40;66.30
4840;DHT22;2434;48.486;7.964;2023-07-16T01:56:57;20.30;67.80
4840;DHT22;2434;48.486;7.964;2023-07-16T01:59:26;20.30;68.80
4840;DHT22;2434;48.486;7.964;2023-07-16T02:01:55;20.30;70.10
4840;DHT22;2434;48.486;7.964;2023-07-16T02:04:23;20.30;69.90
4840;DHT22;2434;48.486;7.964;2023-07-16T02:06:52;20.20;70.10
4840;DHT22;2434;48.486;7.964;2023-07-16T02:09:20;20.10;70.30
4840;DHT22;2434;48.486;7.964;2023-07-16T02:11:48;20.00;71.10
4840;DHT22;2434;48.486;7.964;2023-07-16T02:14:16;20.00;70.80
4840;DHT22;2434;48.486;7.964;2023-07-16T02:16:47;19.90;71.40
4840;DHT22;2434;48.486;7.964;2023-07-16T02:19:16;19.80;71.90
4840;DHT22;2434;48.486;7.964;2023-07-16T02:21:44;19.70;71.60
4840;DHT22;2434;48.486;7.964;2023-07-16T02:24:12;19.70;71.50
4840;DHT22;2434;48.486;7.964;2023-07-16T02:26:40;19.70;70.90
4840;DHT22;2434;48.486;7.964;2023-07-16T02:29:11;19.70;70.90
4840;DHT22;2434;48.486;7.964;2023-07-16T02:31:39;19.70;71.00
4840;DHT22;2434;48.486;7.964;2023-07-16T02:34:10;19.70;70.80
4840;DHT22;2434;48.486;7.964;2023-07-16T02:36:39;19.80;70.50
4840;DHT22;2434;48.486;7.964;2023-07-16T02:39:07;19.70;70.10
4840;DHT22;2434;48.486;7.964;2023-07-16T02:41:36;19.70;70.10
4840;DHT22;2434;48.486;7.964;2023-07-16T02:44:05;19.70;69.40
4840;DHT22;2434;48.486;7.964;2023-07-16T02:46:34;19.80;69.70
4840;DHT22;2434;48.486;7.964;2023-07-16T02:49:03;19.70;69.30
4840;DHT22;2434;48.486;7.964;2023-07-16T02:51:33;19.80;69.40
4840;DHT22;2434;48.486;7.964;2023-07-16T02:54:01;19.80;69.10
4840;DHT22;2434;48.486;7.964;2023-07-16T02:56:30;19.80;69.00
4840;DHT22;2434;48.486;7.964;2023-07-16T02:58:58;19.80;69.10
4840;DHT22;2434;48.486;7.964;2023-07-16T03:01:26;19.70;69.30
4840;DHT22;2434;48.486;7.964;2023-07-16T03:03:55;19.70;68.10
4840;DHT22;2434;48.486;7.964;2023-07-16T03:06:23;19.70;67.60
4840;DHT22;2434;48.486;7.964;2023-07-16T03:08:53;19.60;67.80
4840;DHT22;2434;48.486;7.964;2023-07-16T03:11:21;19.60;66.90
4840;DHT22;2434;48.486;7.964;2023-07-16T03:13:49;19.60;67.20
4840;DHT22;2434;48.486;7.964;2023-07-16T03:16:17;19.60;68.00
4840;DHT22;2434;48.486;7.964;2023-07-16T03:18:46;19.60;67.40
4840;DHT22;2434;48.486;7.964;2023-07-16T03:21:14;19.60;67.70
4840;DHT22;2434;48.486;7.964;2023-07-16T03:23:43;19.60;67.30
4840;DHT22;2434;48.486;7.964;2023-07-16T03:26:13;19.60;66.70
4840;DHT22;2434;48.486;7.964;2023-07-16T03:28:42;19.60;67.40
4840;DHT22;2434;48.486;7.964;2023-07-16T03:31:13;19.70;67.50
4840;DHT22;2434;48.486;7.964;2023-07-16T03:33:44;19.70;67.80
4840;DHT22;2434;48.486;7.964;2023-07-16T03:36:13;19.70;68.60
4840;DHT22;2434;48.486;7.964;2023-07-16T03:38:41;19.70;68.20
4840;DHT22;2434;48.486;7.964;2023-07-16T03:41:12;19.70;68.60
4840;DHT22;2434;48.486;7.964;2023-07-16T03:43:41;19.70;67.70
4840;DHT22;2434;48.486;7.964;2023-07-16T03:46:16;19.70;68.10
4840;DHT22;2434;48.486;7.964;2023-07-16T03:48:45;19.70;67.80
4840;DHT22;2434;48.486;7.964;2023-07-16T03:51:13;19.70;68.00
4840;DHT22;2434;48.486;7.964;2023-07-16T03:53:42;19.60;67.70
4840;DHT22;2434;48.486;7.964;2023-07-16T03:56:10;19.60;67.20
4840;DHT22;2434;48.486;7.964;2023-07-16T03:58:40;19.70;68.00
4840;DHT22;2434;48.486;7.964;2023-07-16T04:01:09;19.70;67.30
4840;DHT22;2434;48.486;7.964;2023-07-16T04:03:37;19.70;67.90
4840;DHT22;2434;48.486;7.964;2023-07-16T04:06:08;19.70;67.00
4840;DHT22;2434;48.486;7.964;2023-07-16T04:08:37;19.70;67.30
4840;DHT22;2434;48.486;7.964;2023-07-16T04:11:06;19.70;67.40
4840;DHT22;2434;48.486;7.964;2023-07-16T04:13:35;19.70;67.70
4840;DHT22;2434;48.486;7.964;2023-07-16T04:16:05;19.70;67.50
4840;DHT22;2434;48.486;7.964;2023-07-16T04:18:34;19.70;68.70
4840;DHT22;2434;48.486;7.964;2023-07-16T04:21:02;19.70;67.90
4840;DHT22;2434;48.486;7.964;2023-07-16T04:23:30;19.70;68.10
4840;DHT22;2434;48.486;7.964;2023-07-16T04:25:58;19.60;67.80
4840;DHT22;2434;48.486;7.964;2023-07-16T04:28:27;19.60;66.70
4840;DHT22;2434;48.486;7.964;2023-07-16T04:30:55;19.70;67.40
4840;DHT22;2434;48.486;7.964;2023-07-16T04:33:25;19.70;66.10
4840;DHT22;2434;48.486;7.964;2023-07-16T04:35:53;19.70;66.40
4840;DHT22;2434;48.486;7.964;2023-07-16T04:38:22;19.70;66.70
4840;DHT22;2434;48.486;7.964;2023-07-16T04:40:50;19.70;67.20
4840;DHT22;2434;48.486;7.964;2023-07-16T04:43:18;19.60;67.70
4840;DHT22;2434;48.486;7.964;2023-07-16T04:45:46;19.60;67.10
4840;DHT22;2434;48.486;7.964;2023-07-16T04:48:14;19.60;67.40
4840;DHT22;2434;48.486;7.964;2023-07-16T04:50:44;19.60;67.00
4840;DHT22;2434;48.486;7.964;2023-07-16T04:53:12;19.60;67.90
4840;DHT22;2434;48.486;7.964;2023-07-16T04:55:40;19.60;67.30
4840;DHT22;2434;48.486;7.964;2023-07-16T04:58:10;19.60;67.50
4840;DHT22;2434;48.486;7.964;2023-07-16T05:00:39;19.60;67.40
4840;DHT22;2434;48.486;7.964;2023-07-16T05:03:07;19.60;66.20
4840;DHT22;2434;48.486;7.964;2023-07-16T05:05:36;19.60;66.10
4840;DHT22;2434;48.486;7.964;2023-07-16T05:08:05;19.60;66.20
4840;DHT22;2434;48.486;7.964;2023-07-16T05:10:34;19.60;65.90
4840;DHT22;2434;48.486;7.964;2023-07-16T05:13:02;19.60;66.50
4840;DHT22;2434;48.486;7.964;2023-07-16T05:15:31;19.60;67.60
4840;DHT22;2434;48.486;7.964;2023-07-16T05:18:00;19.50;65.30
4840;DHT22;2434;48.486;7.964;2023-07-16T05:20:29;19.50;65.00
4840;DHT22;2434;48.486;7.964;2023-07-16T05:22:57;19.50;65.10
4840;DHT22;2434;48.486;7.964;2023-07-16T05:25:27;19.60;65.10
4840;DHT22;2434;48.486;7.964;2023-07-16T05:27:58;19.50;65.60
4840;DHT22;2434;48.486;7.964;2023-07-16T05:30:26;19.50;66.30
4840;DHT22;2434;48.486;7.964;2023-07-16T05:32:54;19.50;67.60
4840;DHT22;2434;48.486;7.964;2023-07-16T05:35:23;19.50;64.90
4840;DHT22;2434;48.486;7.964;2023-07-16T05:37:51;19.50;65.30
4840;DHT22;2434;48.486;7.964;2023-07-16T05:40:19;19.40;65.10
4840;DHT22;2434;48.486;7.964;2023-07-16T05:42:49;19.40;65.70
4840;DHT22;2434;48.486;7.964;2023-07-16T05:45:17;19.40;66.30
4840;DHT22;2434;48.486;7.964;2023-07-16T05:47:46;19.40;67.30
4840;DHT22;2434;48.486;7.964;2023-07-16T05:50:14;19.40;66.40
4840;DHT22;2434;48.486;7.964;2023-07-16T05:52:42;19.30;66.00
4840;DHT22;2434;48.486;7.964;2023-07-16T05:55:12;19.30;65.40
4840;DHT22;2434;48.486;7.964;2023-07-16T05:57:40;19.30;65.40
4840;DHT22;2434;48.486;7.964;2023-07-16T06:00:11;19.30;65.70
4840;DHT22;2434;48.486;7.964;2023-07-16T06:02:42;19.40;65.80
4840;DHT22;2434;48.486;7.964;2023-07-16T06:05:10;19.40;65.70
4840;DHT22;2434;48.486;7.964;2023-07-16T06:07:38;19.40;65.60
4840;DHT22;2434;48.486;7.964;2023-07-16T06:10:08;19.30;64.90
4840;DHT22;2434;48.486;7.964;2023-07-16T06:12:36;19.30;65.80
4840;DHT22;2434;48.486;7.964;2023-07-16T06:15:05;19.30;65.50
4840;DHT22;2434;48.486;7.964;2023-07-16T06:17:34;19.20;66.10
4840;DHT22;2434;48.486;7.964;2023-07-16T06:20:03;19.30;67.40
4840;DHT22;2434;48.486;7.964;2023-07-16T06:22:32;19.30;66.80
4840;DHT22;2434;48.486;7.964;2023-07-16T06:25:01;19.40;65.60
4840;DHT22;2434;48.486;7.964;2023-07-16T06:27:29;19.40;64.80
4840;DHT22;2434;48.486;7.964;2023-07-16T06:29:57;19.40;66.60
4840;DHT22;2434;48.486;7.964;2023-07-16T06:32:25;19.40;66.30
4840;DHT22;2434;48.486;7.964;2023-07-16T06:34:55;19.40;66.00
4840;DHT22;2434;48.486;7.964;2023-07-16T06:37:23;19.40;63.90
4840;DHT22;2434;48.486;7.964;2023-07-16T06:39:52;19.40;63.30
4840;DHT22;2434;48.486;7.964;2023-07-16T06:42:20;19.40;64.50
4840;DHT22;2434;48.486;7.964;2023-07-16T06:44:49;19.40;65.00
4840;DHT22;2434;48.486;7.964;2023-07-16T06:47:17;19.30;64.60
4840;DHT22;2434;48.486;7.964;2023-07-16T06:49:45;19.40;65.10
4840;DHT22;2434;48.486;7.964;2023-07-16T06:52:22;19.40;65.70
4840;DHT22;2434;48.486;7.964;2023-07-16T06:54:51;19.30;66.70
4840;DHT22;2434;48.486;7.964;2023-07-16T06:57:19;19.40;66.60
4840;DHT22;2434;48.486;7.964;2023-07-16T06:59:47;19.40;65.30
4840;DHT22;2434;48.486;7.964;2023-07-16T07:02:16;19.40;65.40
4840;DHT22;2434;48.486;7.964;2023-07-16T07:04:44;19.40;66.40
4840;DHT22;2434;48.486;7.964;2023-07-16T07:07:13;19.40;65.30
4840;DHT22;2434;48.486;7.964;2023-07-16T07:09:42;19.40;64.50
4840;DHT22;2434;48.486;7.964;2023-07-16T07:12:10;19.50;65.00
4840;DHT22;2434;48.486;7.964;2023-07-16T07:14:39;19.50;65.00
4840;DHT22;2434;48.486;7.964;2023-07-16T07:17:07;19.50;64.30
4840;DHT22;2434;48.486;7.964;2023-07-16T07:19:35;19.40;64.50
4840;DHT22;2434;48.486;7.964;2023-07-16T07:22:03;19.50;64.50
4840;DHT22;2434;48.486;7.964;2023-07-16T07:24:32;19.50;64.20
4840;DHT22;2434;48.486;7.964;2023-07-16T07:27:02;19.50;64.40
4840;DHT22;2434;48.486;7.964;2023-07-16T07:29:30;19.50;64.50
4840;DHT22;2434;48.486;7.964;2023-07-16T07:31:58;19.60;65.10
4840;DHT22;2434;48.486;7.964;2023-07-16T07:34:27;19.60;64.10
4840;DHT22;2434;48.486;7.964;2023-07-16T07:36:55;19.60;64.80
4840;DHT22;2434;48.486;7.964;2023-07-16T07:39:24;19.60;64.40
4840;DHT22;2434;48.486;7.964;2023-07-16T07:41:52;19.60;64.70
4840;DHT22;2434;48.486;7.964;2023-07-16T07:44:21;19.60;65.70
4840;DHT22;2434;48.486;7.964;2023-07-16T07:46:50;19.70;64.60
4840;DHT22;2434;48.486;7.964;2023-07-16T07:49:18;19.70;63.90
4840;DHT22;2434;48.486;7.964;2023-07-16T07:51:46;19.80;63.40
4840;DHT22;2434;48.486;7.964;2023-07-16T07:54:16;19.80;61.70
4840;DHT22;2434;48.486;7.964;2023-07-16T07:56:45;19.80;62.50
4840;DHT22;2434;48.486;7.964;2023-07-16T07:59:14;19.80;63.20
4840;DHT22;2434;48.486;7.964;2023-07-16T08:01:44;19.90;63.30
4840;DHT22;2434;48.486;7.964;2023-07-16T08:04:12;19.90;64.70
4840;DHT22;2434;48.486;7.964;2023-07-16T08:06:40;19.90;63.20
4840;DHT22;2434;48.486;7.964;2023-07-16T08:09:09;20.00;62.90
4840;DHT22;2434;48.486;7.964;2023-07-16T08:11:37;20.00;62.60
4840;DHT22;2434;48.486;7.964;2023-07-16T08:14:05;20.00;61.90
4840;DHT22;2434;48.486;7.964;2023-07-16T08:16:33;20.10;64.10
4840;DHT22;2434;48.486;7.964;2023-07-16T08:19:03;20.10;60.90
4840;DHT22;2434;48.486;7.964;2023-07-16T08:21:32;20.10;59.80
4840;DHT22;2434;48.486;7.964;2023-07-16T08:24:00;20.20;61.00
4840;DHT22;2434;48.486;7.964;2023-07-16T08:26:29;20.20;60.10
4840;DHT22;2434;48.486;7.964;2023-07-16T08:28:57;20.20;59.50
4840;DHT22;2434;48.486;7.964;2023-07-16T08:31:26;20.30;58.10
4840;DHT22;2434;48.486;7.964;2023-07-16T08:33:55;20.30;57.70
4840;DHT22;2434;48.486;7.964;2023-07-16T08:36:25;20.40;57.30
4840;DHT22;2434;48.486;7.964;2023-07-16T08:38:54;20.40;55.90
4840;DHT22;2434;48.486;7.964;2023-07-16T08:41:22;20.40;55.40
4840;DHT22;2434;48.486;7.964;2023-07-16T08:43:51;20.40;54.50
4840;DHT22;2434;48.486;7.964;2023-07-16T08:46:20;20.40;54.70
4840;DHT22;2434;48.486;7.964;2023-07-16T08:48:49;20.50;55.90
4840;DHT22;2434;48.486;7.964;2023-07-16T08:51:21;20.50;55.70
4840;DHT22;2434;48.486;7.964;2023-07-16T08:53:51;20.60;53.60
4840;DHT22;2434;48.486;7.964;2023-07-16T08:56:20;20.60;55.40
4840;DHT22;2434;48.486;7.964;2023-07-16T08:58:49;20.70;54.00
4840;DHT22;2434;48.486;7.964;2023-07-16T09:01:18;20.80;56.60
4840;DHT22;2434;48.486;7.964;2023-07-16T09:03:50;20.80;53.20
4840;DHT22;2434;48.486;7.964;2023-07-16T09:06:18;20.90;51.80
4840;DHT22;2434;48.486;7.964;2023-07-16T09:08:47;20.90;51.30
4840;DHT22;2434;48.486;7.964;2023-07-16T09:11:16;20.90;50.60
4840;DHT22;2434;48.486;7.964;2023-07-16T09:13:48;21.00;50.10
4840;DHT22;2434;48.486;7.964;2023-07-16T09:16:18;21.00;49.00
4840;DHT22;2434;48.486;7.964;2023-07-16T09:18:47;21.10;50.00
4840;DHT22;2434;48.486;7.964;2023-07-16T09:21:16;21.10;48.60
4840;DHT22;2434;48.486;7.964;2023-07-16T09:23:44;21.00;48.70
4840;DHT22;2434;48.486;7.964;2023-07-16T09:26:12;21.20;48.70
4840;DHT22;2434;48.486;7.964;2023-07-16T09:28:43;21.20;48.80
4840;DHT22;2434;48.486;7.964;2023-07-16T09:31:11;21.20;47.70
4840;DHT22;2434;48.486;7.964;2023-07-16T09:33:39;21.20;47.80
4840;DHT22;2434;48.486;7.964;2023-07-16T09:36:07;21.20;48.10
4840;DHT22;2434;48.486;7.964;2023-07-16T09:38:36;21.30;48.50
4840;DHT22;2434;48.486;7.964;2023-07-16T09:41:05;21.30;50.00
4840;DHT22;2434;48.486;7.964;2023-07-16T09:43:35;21.40;48.90
4840;DHT22;2434;48.486;7.964;2023-07-16T09:46:05;21.40;48.60
4840;DHT22;2434;48.486;7.964;2023-07-16T09:48:33;21.50;48.30
4840;DHT22;2434;48.486;7.964;2023-07-16T09:51:01;21.50;49.10
4840;DHT22;2434;48.486;7.964;2023-07-16T09:53:31;21.60;48.90
4840;DHT22;2434;48.486;7.964;2023-07-16T09:56:03;21.60;47.40
4840;DHT22;2434;48.486;7.964;2023-07-16T09:58:32;21.60;47.80
4840;DHT22;2434;48.486;7.964;2023-07-16T10:01:01;21.60;49.90
4840;DHT22;2434;48.486;7.964;2023-07-16T10:03:32;21.60;49.20
4840;DHT22;2434;48.486;7.964;2023-07-16T10:06:07;21.70;49.30
4840;DHT22;2434;48.486;7.964;2023-07-16T10:08:35;21.90;47.60
4840;DHT22;2434;48.486;7.964;2023-07-16T10:11:14;21.90;49.70
4840;DHT22;2434;48.486;7.964;2023-07-16T10:13:43;21.90;47.30
4840;DHT22;2434;48.486;7.964;2023-07-16T10:16:19;22.00;47.50
4840;DHT22;2434;48.486;7.964;2023-07-16T10:18:52;22.00;47.60
4840;DHT22;2434;48.486;7.964;2023-07-16T10:21:23;22.00;46.20
4840;DHT22;2434;48.486;7.964;2023-07-16T10:23:57;22.00;45.20
4840;DHT22;2434;48.486;7.964;2023-07-16T10:26:27;22.10;47.80
4840;DHT22;2434;48.486;7.964;2023-07-16T10:28:56;22.10;45.60
4840;DHT22;2434;48.486;7.964;2023-07-16T10:31:25;22.00;44.50
4840;DHT22;2434;48.486;7.964;2023-07-16T10:34:00;22.00;45.50
4840;DHT22;2434;48.486;7.964;2023-07-16T10:36:28;22.00;42.80
4840;DHT22;2434;48.486;7.964;2023-07-16T10:39:02;22.00;44.30
4840;DHT22;2434;48.486;7.964;2023-07-16T10:41:31;22.00;44.70
4840;DHT22;2434;48.486;7.964;2023-07-16T10:44:00;22.10;44.30
4840;DHT22;2434;48.486;7.964;2023-07-16T10:46:28;22.00;44.50
4840;DHT22;2434;48.486;7.964;2023-07-16T10:49:00;22.10;43.00
4840;DHT22;2434;48.486;7.964;2023-07-16T10:51:28;22.10;40.60
4840;DHT22;2434;48.486;7.964;2023-07-16T10:53:56;22.00;43.30
4840;DHT22;2434;48.486;7.964;2023-07-16T10:56:25;22.00;42.80
4840;DHT22;2434;48.486;7.964;2023-07-16T10:58:53;22.00;42.10
4840;DHT22;2434;48.486;7.964;2023-07-16T11:01:21;22.00;41.60
4840;DHT22;2434;48.486;7.964;2023-07-16T11:03:50;22.10;40.90
4840;DHT22;2434;48.486;7.964;2023-07-16T11:06:19;22.10;42.80
4840;DHT22;2434;48.486;7.964;2023-07-16T11:08:49;22.20;42.40
4840;DHT22;2434;48.486;7.964;2023-07-16T11:11:28;22.20;42.10
4840;DHT22;2434;48.486;7.964;2023-07-16T11:13:56;22.20;41.00
4840;DHT22;2434;48.486;7.964;2023-07-16T11:16:25;22.20;42.40
4840;DHT22;2434;48.486;7.964;2023-07-16T11:18:53;22.20;42.40
4840;DHT22;2434;48.486;7.964;2023-07-16T11:21:22;22.30;40.50
4840;DHT22;2434;48.486;7.964;2023-07-16T11:23:51;22.20;41.10
4840;DHT22;2434;48.486;7.964;2023-07-16T11:26:19;22.20;41.30
4840;DHT22;2434;48.486;7.964;2023-07-16T11:28:50;22.30;41.80
4840;DHT22;2434;48.486;7.964;2023-07-16T11:31:18;22.30;42.10
4840;DHT22;2434;48.486;7.964;2023-07-16T11:33:50;22.40;39.90
4840;DHT22;2434;48.486;7.964;2023-07-16T11:36:18;22.30;41.00
4840;DHT22;2434;48.486;7.964;2023-07-16T11:38:49;22.30;42.00
4840;DHT22;2434;48.486;7.964;2023-07-16T11:41:20;22.40;42.40
4840;DHT22;2434;48.486;7.964;2023-07-16T11:43:50;22.40;42.10
4840;DHT22;2434;48.486;7.964;2023-07-16T11:46:18;22.40;41.90
4840;DHT22;2434;48.486;7.964;2023-07-16T11:48:47;22.40;40.90
4840;DHT22;2434;48.486;7.964;2023-07-16T11:51:15;22.30;41.50
4840;DHT22;2434;48.486;7.964;2023-07-16T11:53:44;22.40;42.70
4840;DHT22;2434;48.486;7.964;2023-07-16T11:56:14;22.40;43.80
4840;DHT22;2434;48.486;7.964;2023-07-16T11:58:42;22.40;42.30
4840;DHT22;2434;48.486;7.964;2023-07-16T12:01:11;22.40;43.40
4840;DHT22;2434;48.486;7.964;2023-07-16T12:03:40;22.50;41.60
4840;DHT22;2434;48.486;7.964;2023-07-16T12:06:08;22.50;41.50
4840;DHT22;2434;48.486;7.964;2023-07-16T12:08:37;22.50;42.10
4840;DHT22;2434;48.486;7.964;2023-07-16T12:11:05;22.50;41.40
4840;DHT22;2434;48.486;7.964;2023-07-16T12:13:35;22.50;41.60
4840;DHT22;2434;48.486;7.964;2023-07-16T12:16:05;22.70;42.70
4840;DHT22;2434;48.486;7.964;2023-07-16T12:18:33;22.70;43.50
4840;DHT22;2434;48.486;7.964;2023-07-16T12:21:02;22.70;43.70
4840;DHT22;2434;48.486;7.964;2023-07-16T12:23:30;22.80;43.10
4840;DHT22;2434;48.486;7.964;2023-07-16T12:25:58;22.80;43.10
4840;DHT22;2434;48.486;7.964;2023-07-16T12:28:26;22.90;42.10
4840;DHT22;2434;48.486;7.964;2023-07-16T12:30:56;23.10;40.10
4840;DHT22;2434;48.486;7.964;2023-07-16T12:33:24;23.20;38.50
4840;DHT22;2434;48.486;7.964;2023-07-16T12:35:52;23.20;37.80
4840;DHT22;2434;48.486;7.964;2023-07-16T12:38:21;23.20;37.30
4840;DHT22;2434;48.486;7.964;2023-07-16T12:40:50;23.20;37.60
4840;DHT22;2434;48.486;7.964;2023-07-16T12:43:18;23.30;38.90
4840;DHT22;2434;48.486;7.964;2023-07-16T12:45:46;23.40;36.80
4840;DHT22;2434;48.486;7.964;2023-07-16T12:48:16;23.40;34.90
4840;DHT22;2434;48.486;7.964;2023-07-16T12:50:45;23.50;36.20
4840;DHT22;2434;48.486;7.964;2023-07-16T12:53:13;23.50;35.60
4840;DHT22;2434;48.486;7.964;2023-07-16T12:55:42;23.50;35.20
4840;DHT22;2434;48.486;7.964;2023-07-16T12:58:10;23.50;35.70
4840;DHT22;2434;48.486;7.964;2023-07-16T13:00:38;23.60;35.80
4840;DHT22;2434;48.486;7.964;2023-07-16T13:03:09;23.60;34.60
4840;DHT22;2434;48.486;7.964;2023-07-16T13:05:40;23.60;35.10
4840;DHT22;2434;48.486;7.964;2023-07-16T13:08:08;23.60;34.90
4840;DHT22;2434;48.486;7.964;2023-07-16T13:10:36;23.60;35.10
4840;DHT22;2434;48.486;7.964;2023-07-16T13:13:05;23.60;35.00
4840;DHT22;2434;48.486;7.964;2023-07-16T13:15:34;23.70;35.70
4840;DHT22;2434;48.486;7.964;2023-07-16T13:18:03;23.70;32.10
4840;DHT22;2434;48.486;7.964;2023-07-16T13:20:31;23.80;32.50
4840;DHT22;2434;48.486;7.964;2023-07-16T13:23:01;23.70;33.70
4840;DHT22;2434;48.486;7.964;2023-07-16T13:25:29;23.70;35.20
4840;DHT22;2434;48.486;7.964;2023-07-16T13:27:57;23.70;33.00
4840;DHT22;2434;48.486;7.964;2023-07-16T13:30:26;23.70;32.50
4840;DHT22;2434;48.486;7.964;2023-07-16T13:32:54;23.70;33.00
4840;DHT22;2434;48.486;7.964;2023-07-16T13:35:23;23.70;33.20
4840;DHT22;2434;48.486;7.964;2023-07-16T13:37:51;23.70;32.90
4840;DHT22;2434;48.486;7.964;2023-07-16T13:40:21;23.70;31.60
4840;DHT22;2434;48.486;7.964;2023-07-16T13:42:49;23.80;33.00
4840;DHT22;2434;48.486;7.964;2023-07-16T13:45:17;23.80;33.10
4840;DHT22;2434;48.486;7.964;2023-07-16T13:47:46;23.80;33.30
4840;DHT22;2434;48.486;7.964;2023-07-16T13:50:15;23.90;31.30
4840;DHT22;2434;48.486;7.964;2023-07-16T13:52:43;23.90;31.00
4840;DHT22;2434;48.486;7.964;2023-07-16T13:55:11;23.90;31.30
4840;DHT22;2434;48.486;7.964;2023-07-16T13:57:41;23.90;31.30
4840;DHT22;2434;48.486;7.964;2023-07-16T14:00:11;23.90;32.10
4840;DHT22;2434;48.486;7.964;2023-07-16T14:02:39;23.90;32.50
4840;DHT22;2434;48.486;7.964;2023-07-16T14:05:08;24.00;33.40
4840;DHT22;2434;48.486;7.964;2023-07-16T14:07:36;24.00;32.50
4840;DHT22;2434;48.486;7.964;2023-07-16T14:10:05;24.20;31.90
4840;DHT22;2434;48.486;7.964;2023-07-16T14:12:33;24.20;31.10
4840;DHT22;2434;48.486;7.964;2023-07-16T14:15:04;24.30;31.30
4840;DHT22;2434;48.486;7.964;2023-07-16T14:17:32;24.30;30.50
4840;DHT22;2434;48.486;7.964;2023-07-16T14:20:00;24.40;31.10
4840;DHT22;2434;48.486;7.964;2023-07-16T14:22:28;24.50;30.00
4840;DHT22;2434;48.486;7.964;2023-07-16T14:24:56;24.60;30.10
4840;DHT22;2434;48.486;7.964;2023-07-16T14:27:25;24.60;30.60
4840;DHT22;2434;48.486;7.964;2023-07-16T14:29:53;24.50;30.70
4840;DHT22;2434;48.486;7.964;2023-07-16T14:32:33;24.50;30.10
4840;DHT22;2434;48.486;7.964;2023-07-16T14:35:02;24.50;30.10
4840;DHT22;2434;48.486;7.964;2023-07-16T14:37:30;24.40;30.20
4840;DHT22;2434;48.486;7.964;2023-07-16T14:39:58;24.40;30.00
4840;DHT22;2434;48.486;7.964;2023-07-16T14:42:27;24.40;30.10
4840;DHT22;2434;48.486;7.964;2023-07-16T14:44:55;24.30;29.80
4840;DHT22;2434;48.486;7.964;2023-07-16T14:47:23;24.30;30.40
4840;DHT22;2434;48.486;7.964;2023-07-16T14:49:52;24.40;31.10
4840;DHT22;2434;48.486;7.964;2023-07-16T14:52:21;24.40;30.60
4840;DHT22;2434;48.486;7.964;2023-07-16T14:54:49;24.50;29.90
4840;DHT22;2434;48.486;7.964;2023-07-16T14:57:17;24.50;30.40
4840;DHT22;2434;48.486;7.964;2023-07-16T14:59:45;24.50;30.50
4840;DHT22;2434;48.486;7.964;2023-07-16T15:02:13;24.50;31.90
4840;DHT22;2434;48.486;7.964;2023-07-16T15:04:41;24.50;31.10
4840;DHT22;2434;48.486;7.964;2023-07-16T15:07:11;24.50;30.70
4840;DHT22;2434;48.486;7.964;2023-07-16T15:09:39;24.50;30.10
4840;DHT22;2434;48.486;7.964;2023-07-16T15:12:08;24.50;29.90
4840;DHT22;2434;48.486;7.964;2023-07-16T15:14:36;24.60;31.00
4840;DHT22;2434;48.486;7.964;2023-07-16T15:17:05;24.50;30.70
4840;DHT22;2434;48.486;7.964;2023-07-16T15:19:34;24.50;29.80
4840;DHT22;2434;48.486;7.964;2023-07-16T15:22:02;24.60;30.30
4840;DHT22;2434;48.486;7.964;2023-07-16T15:24:34;24.60;30.90
4840;DHT22;2434;48.486;7.964;2023-07-16T15:27:03;24.60;31.00
4840;DHT22;2434;48.486;7.964;2023-07-16T15:29:31;24.70;30.80
4840;DHT22;2434;48.486;7.964;2023-07-16T15:32:00;24.80;30.70
4840;DHT22;2434;48.486;7.964;2023-07-16T15:34:29;24.80;30.50
4840;DHT22;2434;48.486;7.964;2023-07-16T15:36:57;25.00;30.40
4840;DHT22;2434;48.486;7.964;2023-07-16T15:39:26;25.00;29.40
4840;DHT22;2434;48.486;7.964;2023-07-16T15:41:55;25.10;29.40
4840;DHT22;2434;48.486;7.964;2023-07-16T15:44:24;25.10;29.50
4840;DHT22;2434;48.486;7.964;2023-07-16T15:46:52;25.00;31.00
4840;DHT22;2434;48.486;7.964;2023-07-16T15:49:20;25.00;30.10
4840;DHT22;2434;48.486;7.964;2023-07-16T15:51:49;24.90;31.30
4840;DHT22;2434;48.486;7.964;2023-07-16T15:54:17;24.90;31.00
4840;DHT22;2434;48.486;7.964;2023-07-16T15:56:45;24.90;31.40
4840;DHT22;2434;48.486;7.964;2023-07-16T15:59:15;24.90;31.90
4840;DHT22;2434;48.486;7.964;2023-07-16T16:01:43;24.90;32.20
4840;DHT22;2434;48.486;7.964;2023-07-16T16:04:12;24.90;31.50
4840;DHT22;2434;48.486;7.964;2023-07-16T16:06:40;24.90;30.00
4840;DHT22;2434;48.486;7.964;2023-07-16T16:09:09;24.90;30.90
4840;DHT22;2434;48.486;7.964;2023-07-16T16:11:37;24.90;31.20
4840;DHT22;2434;48.486;7.964;2023-07-16T16:14:05;24.90;30.80
4840;DHT22;2434;48.486;7.964;2023-07-16T16:16:37;24.90;31.20